sensor_id;sensor_type;location;lat;lon;timestamp;P1;durP1;ratioP1;P2;durP2;ratioP2
42118;SDS011;27783;42.782;23.274;2022-09-01T00:01:36;14.75;;;13.35;;
42118;SDS011;27783;42.782;23.274;2022-09-01T00:04:04;12.75;;;11.88;;
42118;SDS011;27783;42.782;23.274;2022-09-01T00:06:31;12.68;;;11.77;;
42118;SDS011;27783;42.782;23.274;2022-09-01T00:11:25;14.38;;;13.15;;
42118;SDS011;27783;42.782;23.274;2022-09-01T00:13:52;13.60;;;12.52;;
42118;SDS011;27783;42.782;23.274;2022-09-01T00:16:18;14.60;;;13.45;;
42118;SDS011;27783;42.782;23.274;2022-09-01T00:18:46;13.52;;;12.52;;
42118;SDS011;27783;42.782;23.274;2022-09-01T00:21:15;14.80;;;12.65;;
42118;SDS011;27783;42.782;23.274;2022-09-01T00:23:43;14.70;;;13.60;;
42118;SDS011;27783;42.782;23.274;2022-09-01T00:26:08;14.65;;;13.38;;
42118;SDS011;27783;42.782;23.274;2022-09-01T00:28:34;13.85;;;12.85;;
42118;SDS011;27783;42.782;23.274;2022-09-01T00:31:02;12.95;;;11.85;;
42118;SDS011;27783;42.782;23.274;2022-09-01T00:33:30;14.88;;;13.60;;
42118;SDS011;27783;42.782;23.274;2022-09-01T00:35:56;13.95;;;12.80;;
42118;SDS011;27783;42.782;23.274;2022-09-01T00:38:22;13.93;;;12.73;;
42118;SDS011;27783;42.782;23.274;2022-09-01T00:40:48;13.50;;;12.50;;
42118;SDS011;27783;42.782;23.274;2022-09-01T00:43:19;13.15;;;12.10;;
42118;SDS011;27783;42.782;23.274;2022-09-01T00:45:46;13.38;;;12.40;;
42118;SDS011;27783;42.782;23.274;2022-09-01T00:48:12;13.27;;;12.30;;
42118;SDS011;27783;42.782;23.274;2022-09-01T00:50:39;13.32;;;12.40;;
42118;SDS011;27783;42.782;23.274;2022-09-01T00:53:05;14.15;;;13.00;;
42118;SDS011;27783;42.782;23.274;2022-09-01T00:55:32;13.98;;;12.60;;
42118;SDS011;27783;42.782;23.274;2022-09-01T00:58:01;15.13;;;13.63;;
42118;SDS011;27783;42.782;23.274;2022-09-01T01:00:30;14.00;;;12.85;;
42118;SDS011;27783;42.782;23.274;2022-09-01T01:02:57;14.60;;;13.63;;
42118;SDS011;27783;42.782;23.274;2022-09-01T01:05:28;13.88;;;12.90;;
42118;SDS011;27783;42.782;23.274;2022-09-01T01:07:58;13.57;;;12.50;;
42118;SDS011;27783;42.782;23.274;2022-09-01T01:10:25;14.43;;;13.25;;
42118;SDS011;27783;42.782;23.274;2022-09-01T01:12:57;13.55;;;12.20;;
42118;SDS011;27783;42.782;23.274;2022-09-01T01:15:26;13.73;;;12.25;;
42118;SDS011;27783;42.782;23.274;2022-09-01T01:17:52;13.30;;;12.30;;
42118;SDS011;27783;42.782;23.274;2022-09-01T01:20:17;14.27;;;13.07;;
42118;SDS011;27783;42.782;23.274;2022-09-01T01:25:58;13.30;;;12.13;;
42118;SDS011;27783;42.782;23.274;2022-09-01T01:28:25;12.80;;;11.90;;
42118;SDS011;27783;42.782;23.274;2022-09-01T01:30:57;13.68;;;12.50;;
42118;SDS011;27783;42.782;23.274;2022-09-01T01:33:32;15.55;;;12.50;;
42118;SDS011;27783;42.782;23.274;2022-09-01T01:36:06;12.40;;;11.30;;
42118;SDS011;27783;42.782;23.274;2022-09-01T01:38:34;12.35;;;11.38;;
42118;SDS011;27783;42.782;23.274;2022-09-01T01:41:00;13.10;;;11.93;;
42118;SDS011;27783;42.782;23.274;2022-09-01T01:43:26;13.27;;;12.18;;
42118;SDS011;27783;42.782;23.274;2022-09-01T01:45:54;13.25;;;11.95;;
42118;SDS011;27783;42.782;23.274;2022-09-01T01:48:23;12.68;;;11.77;;
42118;SDS011;27783;42.782;23.274;2022-09-01T01:50:50;13.82;;;12.32;;
42118;SDS011;27783;42.782;23.274;2022-09-01T01:53:18;13.32;;;12.43;;
42118;SDS011;27783;42.782;23.274;2022-09-01T01:55:44;12.00;;;11.00;;
42118;SDS011;27783;42.782;23.274;2022-09-01T01:58:13;12.52;;;11.70;;
42118;SDS011;27783;42.782;23.274;2022-09-01T02:00:40;13.25;;;12.13;;
42118;SDS011;27783;42.782;23.274;2022-09-01T02:03:09;15.25;;;13.68;;
42118;SDS011;27783;42.782;23.274;2022-09-01T02:05:37;18.42;;;14.45;;
42118;SDS011;27783;42.782;23.274;2022-09-01T02:08:05;16.80;;;15.27;;
42118;SDS011;27783;42.782;23.274;2022-09-01T02:10:33;20.13;;;14.85;;
42118;SDS011;27783;42.782;23.274;2022-09-01T02:13:01;16.45;;;14.93;;
42118;SDS011;27783;42.782;23.274;2022-09-01T02:15:35;17.80;;;16.17;;
42118;SDS011;27783;42.782;23.274;2022-09-01T02:18:13;16.20;;;14.80;;
42118;SDS011;27783;42.782;23.274;2022-09-01T02:20:44;19.92;;;16.20;;
42118;SDS011;27783;42.782;23.274;2022-09-01T02:23:11;21.48;;;16.02;;
42118;SDS011;27783;42.782;23.274;2022-09-01T02:25:40;18.02;;;16.15;;
42118;SDS011;27783;42.782;23.274;2022-09-01T02:28:08;17.23;;;15.48;;
42118;SDS011;27783;42.782;23.274;2022-09-01T02:30:41;15.85;;;14.25;;
42118;SDS011;27783;42.782;23.274;2022-09-01T02:33:09;17.85;;;15.15;;
42118;SDS011;27783;42.782;23.274;2022-09-01T02:35:35;15.85;;;14.55;;
42118;SDS011;27783;42.782;23.274;2022-09-01T02:38:01;15.73;;;14.25;;
42118;SDS011;27783;42.782;23.274;2022-09-01T02:40:31;17.10;;;15.40;;
42118;SDS011;27783;42.782;23.274;2022-09-01T02:42:57;16.90;;;15.30;;
42118;SDS011;27783;42.782;23.274;2022-09-01T02:45:24;18.25;;;16.52;;
42118;SDS011;27783;42.782;23.274;2022-09-01T02:47:51;19.40;;;15.73;;
42118;SDS011;27783;42.782;23.274;2022-09-01T02:50:18;18.67;;;16.27;;
42118;SDS011;27783;42.782;23.274;2022-09-01T02:52:44;16.42;;;14.93;;
42118;SDS011;27783;42.782;23.274;2022-09-01T02:55:12;17.90;;;16.30;;
42118;SDS011;27783;42.782;23.274;2022-09-01T02:57:43;16.33;;;15.02;;
42118;SDS011;27783;42.782;23.274;2022-09-01T03:00:09;18.42;;;15.50;;
42118;SDS011;27783;42.782;23.274;2022-09-01T03:02:50;14.57;;;13.15;;
42118;SDS011;27783;42.782;23.274;2022-09-01T03:05:17;15.80;;;14.25;;
42118;SDS011;27783;42.782;23.274;2022-09-01T03:07:49;14.95;;;13.48;;
42118;SDS011;27783;42.782;23.274;2022-09-01T03:10:21;14.68;;;13.27;;
42118;SDS011;27783;42.782;23.274;2022-09-01T03:12:48;14.73;;;13.43;;
42118;SDS011;27783;42.782;23.274;2022-09-01T03:15:14;18.02;;;13.25;;
42118;SDS011;27783;42.782;23.274;2022-09-01T03:17:39;15.07;;;13.52;;
42118;SDS011;27783;42.782;23.274;2022-09-01T03:20:06;15.23;;;13.80;;
42118;SDS011;27783;42.782;23.274;2022-09-01T03:22:31;16.88;;;15.13;;
42118;SDS011;27783;42.782;23.274;2022-09-01T03:24:57;16.17;;;14.90;;
42118;SDS011;27783;42.782;23.274;2022-09-01T03:27:23;22.58;;;15.23;;
42118;SDS011;27783;42.782;23.274;2022-09-01T03:29:48;18.83;;;15.40;;
42118;SDS011;27783;42.782;23.274;2022-09-01T03:32:14;18.33;;;16.15;;
42118;SDS011;27783;42.782;23.274;2022-09-01T03:34:39;19.30;;;17.13;;
42118;SDS011;27783;42.782;23.274;2022-09-01T03:37:05;19.88;;;18.08;;
42118;SDS011;27783;42.782;23.274;2022-09-01T03:39:31;22.02;;;17.85;;
42118;SDS011;27783;42.782;23.274;2022-09-01T03:41:57;19.55;;;17.75;;
42118;SDS011;27783;42.782;23.274;2022-09-01T03:44:24;22.25;;;20.00;;
42118;SDS011;27783;42.782;23.274;2022-09-01T03:46:51;23.90;;;20.40;;
42118;SDS011;27783;42.782;23.274;2022-09-01T03:49:16;24.05;;;21.50;;
42118;SDS011;27783;42.782;23.274;2022-09-01T03:51:49;30.67;;;20.77;;
42118;SDS011;27783;42.782;23.274;2022-09-01T03:54:18;26.27;;;20.65;;
42118;SDS011;27783;42.782;23.274;2022-09-01T03:56:47;28.08;;;21.80;;
42118;SDS011;27783;42.782;23.274;2022-09-01T03:59:13;29.10;;;22.02;;
42118;SDS011;27783;42.782;23.274;2022-09-01T04:01:40;38.40;;;20.20;;
42118;SDS011;27783;42.782;23.274;2022-09-01T04:04:08;32.87;;;21.43;;
42118;SDS011;27783;42.782;23.274;2022-09-01T04:06:37;30.70;;;20.55;;
42118;SDS011;27783;42.782;23.274;2022-09-01T04:09:04;33.33;;;21.00;;
42118;SDS011;27783;42.782;23.274;2022-09-01T04:11:29;42.72;;;21.45;;
42118;SDS011;27783;42.782;23.274;2022-09-01T04:13:56;37.65;;;22.88;;
42118;SDS011;27783;42.782;23.274;2022-09-01T04:16:23;44.55;;;22.52;;
42118;SDS011;27783;42.782;23.274;2022-09-01T04:19:13;35.47;;;22.50;;
42118;SDS011;27783;42.782;23.274;2022-09-01T04:21:47;48.60;;;23.75;;
42118;SDS011;27783;42.782;23.274;2022-09-01T04:24:14;44.55;;;22.83;;
42118;SDS011;27783;42.782;23.274;2022-09-01T04:26:40;43.90;;;23.95;;
42118;SDS011;27783;42.782;23.274;2022-09-01T04:29:06;49.03;;;22.65;;
42118;SDS011;27783;42.782;23.274;2022-09-01T04:31:33;46.20;;;24.83;;
42118;SDS011;27783;42.782;23.274;2022-09-01T04:34:02;36.55;;;22.60;;
42118;SDS011;27783;42.782;23.274;2022-09-01T04:36:28;38.47;;;23.23;;
42118;SDS011;27783;42.782;23.274;2022-09-01T04:38:57;47.22;;;26.25;;
42118;SDS011;27783;42.782;23.274;2022-09-01T04:41:33;41.65;;;26.73;;
42118;SDS011;27783;42.782;23.274;2022-09-01T04:44:01;37.58;;;24.60;;
42118;SDS011;27783;42.782;23.274;2022-09-01T04:46:29;32.67;;;25.45;;
42118;SDS011;27783;42.782;23.274;2022-09-01T04:48:57;36.85;;;26.30;;
42118;SDS011;27783;42.782;23.274;2022-09-01T04:51:24;33.15;;;24.50;;
42118;SDS011;27783;42.782;23.274;2022-09-01T04:53:54;26.35;;;23.75;;
42118;SDS011;27783;42.782;23.274;2022-09-01T04:56:21;25.75;;;23.23;;
42118;SDS011;27783;42.782;23.274;2022-09-01T04:58:49;24.58;;;22.48;;
42118;SDS011;27783;42.782;23.274;2022-09-01T05:01:16;25.92;;;21.58;;
42118;SDS011;27783;42.782;23.274;2022-09-01T05:03:44;23.88;;;21.63;;
42118;SDS011;27783;42.782;23.274;2022-09-01T05:06:27;23.35;;;21.05;;
42118;SDS011;27783;42.782;23.274;2022-09-01T05:08:59;23.80;;;21.33;;
42118;SDS011;27783;42.782;23.274;2022-09-01T05:11:25;23.73;;;21.48;;
42118;SDS011;27783;42.782;23.274;2022-09-01T05:13:52;21.95;;;20.02;;
42118;SDS011;27783;42.782;23.274;2022-09-01T05:16:23;22.27;;;20.08;;
42118;SDS011;27783;42.782;23.274;2022-09-01T05:19:11;23.77;;;19.42;;
42118;SDS011;27783;42.782;23.274;2022-09-01T05:21:40;22.38;;;19.90;;
42118;SDS011;27783;42.782;23.274;2022-09-01T05:24:23;24.88;;;19.65;;
42118;SDS011;27783;42.782;23.274;2022-09-01T05:26:55;21.45;;;19.75;;
42118;SDS011;27783;42.782;23.274;2022-09-01T05:29:23;20.98;;;19.15;;
42118;SDS011;27783;42.782;23.274;2022-09-01T05:31:52;23.05;;;20.95;;
42118;SDS011;27783;42.782;23.274;2022-09-01T05:34:21;23.10;;;20.98;;
42118;SDS011;27783;42.782;23.274;2022-09-01T05:37:09;21.98;;;20.05;;
42118;SDS011;27783;42.782;23.274;2022-09-01T05:42:05;21.05;;;19.25;;
42118;SDS011;27783;42.782;23.274;2022-09-01T05:44:37;21.23;;;19.30;;
42118;SDS011;27783;42.782;23.274;2022-09-01T05:47:30;25.75;;;20.52;;
42118;SDS011;27783;42.782;23.274;2022-09-01T05:50:02;24.05;;;21.55;;
42118;SDS011;27783;42.782;23.274;2022-09-01T05:52:32;24.10;;;21.98;;
42118;SDS011;27783;42.782;23.274;2022-09-01T05:55:00;23.35;;;21.23;;
42118;SDS011;27783;42.782;23.274;2022-09-01T05:57:27;25.20;;;22.75;;
42118;SDS011;27783;42.782;23.274;2022-09-01T05:59:52;25.25;;;23.08;;
42118;SDS011;27783;42.782;23.274;2022-09-01T06:02:21;25.92;;;23.73;;
42118;SDS011;27783;42.782;23.274;2022-09-01T06:04:48;27.57;;;24.80;;
42118;SDS011;27783;42.782;23.274;2022-09-01T06:07:14;24.95;;;22.98;;
42118;SDS011;27783;42.782;23.274;2022-09-01T06:09:51;23.55;;;21.75;;
42118;SDS011;27783;42.782;23.274;2022-09-01T06:12:22;24.30;;;22.02;;
42118;SDS011;27783;42.782;23.274;2022-09-01T06:14:49;22.38;;;20.63;;
42118;SDS011;27783;42.782;23.274;2022-09-01T06:17:19;21.83;;;20.13;;
42118;SDS011;27783;42.782;23.274;2022-09-01T06:19:49;23.08;;;21.02;;
42118;SDS011;27783;42.782;23.274;2022-09-01T06:22:17;22.23;;;20.35;;
42118;SDS011;27783;42.782;23.274;2022-09-01T06:24:44;24.30;;;22.42;;
42118;SDS011;27783;42.782;23.274;2022-09-01T06:27:13;28.70;;;26.17;;
42118;SDS011;27783;42.782;23.274;2022-09-01T06:29:42;27.17;;;24.70;;
42118;SDS011;27783;42.782;23.274;2022-09-01T06:32:09;25.45;;;23.35;;
42118;SDS011;27783;42.782;23.274;2022-09-01T06:34:42;27.08;;;24.17;;
42118;SDS011;27783;42.782;23.274;2022-09-01T06:37:15;30.25;;;27.20;;
42118;SDS011;27783;42.782;23.274;2022-09-01T06:39:41;28.77;;;26.27;;
42118;SDS011;27783;42.782;23.274;2022-09-01T06:42:08;29.33;;;26.48;;
42118;SDS011;27783;42.782;23.274;2022-09-01T06:44:35;25.87;;;23.63;;
42118;SDS011;27783;42.782;23.274;2022-09-01T06:47:01;24.40;;;22.15;;
42118;SDS011;27783;42.782;23.274;2022-09-01T06:49:27;24.45;;;22.00;;
42118;SDS011;27783;42.782;23.274;2022-09-01T06:51:59;24.63;;;22.30;;
42118;SDS011;27783;42.782;23.274;2022-09-01T06:56:53;24.40;;;22.20;;
42118;SDS011;27783;42.782;23.274;2022-09-01T06:59:19;25.40;;;21.30;;
42118;SDS011;27783;42.782;23.274;2022-09-01T07:01:46;25.35;;;23.17;;
42118;SDS011;27783;42.782;23.274;2022-09-01T07:04:14;25.60;;;23.30;;
42118;SDS011;27783;42.782;23.274;2022-09-01T07:06:44;24.02;;;22.10;;
42118;SDS011;27783;42.782;23.274;2022-09-01T07:09:09;24.13;;;22.05;;
42118;SDS011;27783;42.782;23.274;2022-09-01T07:11:37;22.35;;;20.73;;
42118;SDS011;27783;42.782;23.274;2022-09-01T07:14:03;22.52;;;20.42;;
42118;SDS011;27783;42.782;23.274;2022-09-01T07:16:30;22.87;;;20.73;;
42118;SDS011;27783;42.782;23.274;2022-09-01T07:18:59;21.70;;;20.02;;
42118;SDS011;27783;42.782;23.274;2022-09-01T07:21:27;21.33;;;19.25;;
42118;SDS011;27783;42.782;23.274;2022-09-01T07:23:56;21.65;;;20.00;;
42118;SDS011;27783;42.782;23.274;2022-09-01T07:26:24;21.65;;;19.95;;
42118;SDS011;27783;42.782;23.274;2022-09-01T07:28:49;24.38;;;22.55;;
42118;SDS011;27783;42.782;23.274;2022-09-01T07:31:20;24.85;;;22.77;;
42118;SDS011;27783;42.782;23.274;2022-09-01T07:33:59;22.77;;;21.05;;
42118;SDS011;27783;42.782;23.274;2022-09-01T07:36:28;24.85;;;22.52;;
42118;SDS011;27783;42.782;23.274;2022-09-01T07:38:54;23.10;;;21.40;;
42118;SDS011;27783;42.782;23.274;2022-09-01T07:41:20;25.00;;;22.88;;
42118;SDS011;27783;42.782;23.274;2022-09-01T07:43:47;24.95;;;22.90;;
42118;SDS011;27783;42.782;23.274;2022-09-01T07:46:20;24.20;;;22.15;;
42118;SDS011;27783;42.782;23.274;2022-09-01T07:48:47;21.58;;;19.98;;
42118;SDS011;27783;42.782;23.274;2022-09-01T07:51:16;21.95;;;20.35;;
42118;SDS011;27783;42.782;23.274;2022-09-01T07:53:44;22.95;;;21.25;;
42118;SDS011;27783;42.782;23.274;2022-09-01T07:56:12;23.67;;;21.67;;
42118;SDS011;27783;42.782;23.274;2022-09-01T07:58:39;21.67;;;19.83;;
42118;SDS011;27783;42.782;23.274;2022-09-01T08:01:10;20.63;;;18.75;;
42118;SDS011;27783;42.782;23.274;2022-09-01T08:03:38;22.58;;;20.88;;
42118;SDS011;27783;42.782;23.274;2022-09-01T08:06:05;20.50;;;19.03;;
42118;SDS011;27783;42.782;23.274;2022-09-01T08:08:33;21.70;;;20.00;;
42118;SDS011;27783;42.782;23.274;2022-09-01T08:10:59;22.58;;;20.85;;
42118;SDS011;27783;42.782;23.274;2022-09-01T08:13:27;20.42;;;18.80;;
42118;SDS011;27783;42.782;23.274;2022-09-01T08:15:53;19.25;;;17.75;;
42118;SDS011;27783;42.782;23.274;2022-09-01T08:18:18;18.70;;;17.40;;
42118;SDS011;27783;42.782;23.274;2022-09-01T08:20:44;19.08;;;17.10;;
42118;SDS011;27783;42.782;23.274;2022-09-01T08:23:11;18.03;;;16.63;;
42118;SDS011;27783;42.782;23.274;2022-09-01T08:25:43;18.40;;;16.88;;
42118;SDS011;27783;42.782;23.274;2022-09-01T08:28:10;17.48;;;16.08;;
42118;SDS011;27783;42.782;23.274;2022-09-01T08:30:37;17.63;;;16.17;;
42118;SDS011;27783;42.782;23.274;2022-09-01T08:33:05;16.88;;;15.55;;
42118;SDS011;27783;42.782;23.274;2022-09-01T08:35:31;16.27;;;15.07;;
42118;SDS011;27783;42.782;23.274;2022-09-01T08:37:57;16.83;;;15.32;;
42118;SDS011;27783;42.782;23.274;2022-09-01T08:40:23;15.52;;;14.32;;
42118;SDS011;27783;42.782;23.274;2022-09-01T08:42:52;18.50;;;16.85;;
42118;SDS011;27783;42.782;23.274;2022-09-01T08:48:16;16.55;;;15.02;;
42118;SDS011;27783;42.782;23.274;2022-09-01T08:50:46;17.20;;;15.80;;
42118;SDS011;27783;42.782;23.274;2022-09-01T08:55:56;16.20;;;15.10;;
42118;SDS011;27783;42.782;23.274;2022-09-01T08:58:23;15.70;;;14.48;;
42118;SDS011;27783;42.782;23.274;2022-09-01T09:00:55;15.38;;;14.27;;
42118;SDS011;27783;42.782;23.274;2022-09-01T09:11:37;13.75;;;12.85;;
42118;SDS011;27783;42.782;23.274;2022-09-01T09:14:30;14.15;;;13.00;;
42118;SDS011;27783;42.782;23.274;2022-09-01T09:17:09;14.00;;;12.73;;
42118;SDS011;27783;42.782;23.274;2022-09-01T09:19:40;12.30;;;11.20;;
42118;SDS011;27783;42.782;23.274;2022-09-01T09:22:08;12.88;;;11.73;;
42118;SDS011;27783;42.782;23.274;2022-09-01T09:24:51;13.48;;;12.38;;
42118;SDS011;27783;42.782;23.274;2022-09-01T09:27:27;11.90;;;11.18;;
42118;SDS011;27783;42.782;23.274;2022-09-01T09:29:54;11.70;;;10.90;;
42118;SDS011;27783;42.782;23.274;2022-09-01T09:38:13;10.85;;;10.02;;
42118;SDS011;27783;42.782;23.274;2022-09-01T09:43:37;11.48;;;10.35;;
42118;SDS011;27783;42.782;23.274;2022-09-01T09:51:35;11.23;;;8.90;;
42118;SDS011;27783;42.782;23.274;2022-09-01T09:56:38;8.82;;;7.88;;
42118;SDS011;27783;42.782;23.274;2022-09-01T09:59:27;9.43;;;8.57;;
42118;SDS011;27783;42.782;23.274;2022-09-01T10:01:55;9.82;;;8.68;;
42118;SDS011;27783;42.782;23.274;2022-09-01T10:04:33;9.18;;;8.23;;
42118;SDS011;27783;42.782;23.274;2022-09-01T10:07:04;9.20;;;8.35;;
42118;SDS011;27783;42.782;23.274;2022-09-01T10:09:51;8.43;;;7.65;;
42118;SDS011;27783;42.782;23.274;2022-09-01T10:12:18;9.32;;;8.20;;
42118;SDS011;27783;42.782;23.274;2022-09-01T10:14:47;9.52;;;8.63;;
42118;SDS011;27783;42.782;23.274;2022-09-01T10:17:18;9.40;;;6.97;;
42118;SDS011;27783;42.782;23.274;2022-09-01T10:19:56;9.48;;;8.68;;
42118;SDS011;27783;42.782;23.274;2022-09-01T10:22:29;8.90;;;8.30;;
42118;SDS011;27783;42.782;23.274;2022-09-01T10:24:57;11.38;;;7.75;;
42118;SDS011;27783;42.782;23.274;2022-09-01T10:27:25;9.43;;;8.25;;
42118;SDS011;27783;42.782;23.274;2022-09-01T10:32:36;9.20;;;8.40;;
42118;SDS011;27783;42.782;23.274;2022-09-01T10:35:05;9.25;;;8.45;;
42118;SDS011;27783;42.782;23.274;2022-09-01T10:37:34;9.57;;;8.52;;
42118;SDS011;27783;42.782;23.274;2022-09-01T10:40:11;8.40;;;7.80;;
42118;SDS011;27783;42.782;23.274;2022-09-01T10:42:47;9.48;;;8.15;;
42118;SDS011;27783;42.782;23.274;2022-09-01T10:45:34;12.45;;;11.07;;
42118;SDS011;27783;42.782;23.274;2022-09-01T10:50:45;11.20;;;10.10;;
42118;SDS011;27783;42.782;23.274;2022-09-01T11:04:20;12.50;;;10.50;;
42118;SDS011;27783;42.782;23.274;2022-09-01T11:09:27;34.97;;;21.42;;
42118;SDS011;27783;42.782;23.274;2022-09-01T11:14:58;31.02;;;17.20;;
42118;SDS011;27783;42.782;23.274;2022-09-01T11:17:26;31.08;;;19.95;;
42118;SDS011;27783;42.782;23.274;2022-09-01T11:25:05;26.17;;;17.25;;
42118;SDS011;27783;42.782;23.274;2022-09-01T11:35:41;22.33;;;14.57;;
42118;SDS011;27783;42.782;23.274;2022-09-01T11:38:09;25.77;;;15.43;;
42118;SDS011;27783;42.782;23.274;2022-09-01T11:40:37;21.90;;;15.45;;
42118;SDS011;27783;42.782;23.274;2022-09-01T11:43:05;18.23;;;12.27;;
42118;SDS011;27783;42.782;23.274;2022-09-01T11:45:35;16.33;;;12.95;;
42118;SDS011;27783;42.782;23.274;2022-09-01T11:48:14;15.32;;;12.40;;
42118;SDS011;27783;42.782;23.274;2022-09-01T11:50:41;16.85;;;11.95;;
42118;SDS011;27783;42.782;23.274;2022-09-01T11:53:07;11.90;;;9.73;;
42118;SDS011;27783;42.782;23.274;2022-09-01T11:55:43;10.93;;;9.80;;
42118;SDS011;27783;42.782;23.274;2022-09-01T11:58:11;11.02;;;9.43;;
42118;SDS011;27783;42.782;23.274;2022-09-01T12:00:53;9.82;;;8.93;;
42118;SDS011;27783;42.782;23.274;2022-09-01T12:03:21;15.52;;;8.82;;
42118;SDS011;27783;42.782;23.274;2022-09-01T12:05:54;9.50;;;8.65;;
42118;SDS011;27783;42.782;23.274;2022-09-01T12:08:23;10.02;;;8.63;;
42118;SDS011;27783;42.782;23.274;2022-09-01T12:10:59;8.82;;;7.95;;
42118;SDS011;27783;42.782;23.274;2022-09-01T12:13:28;9.02;;;8.07;;
42118;SDS011;27783;42.782;23.274;2022-09-01T12:15:58;8.85;;;8.02;;
42118;SDS011;27783;42.782;23.274;2022-09-01T12:18:26;9.20;;;8.38;;
42118;SDS011;27783;42.782;23.274;2022-09-01T12:20:54;8.98;;;8.07;;
42118;SDS011;27783;42.782;23.274;2022-09-01T12:23:26;8.60;;;7.70;;
42118;SDS011;27783;42.782;23.274;2022-09-01T12:25:57;8.00;;;6.80;;
42118;SDS011;27783;42.782;23.274;2022-09-01T12:28:27;11.10;;;6.88;;
42118;SDS011;27783;42.782;23.274;2022-09-01T12:30:55;8.32;;;7.63;;
42118;SDS011;27783;42.782;23.274;2022-09-01T12:33:22;7.63;;;6.93;;
42118;SDS011;27783;42.782;23.274;2022-09-01T12:35:49;7.23;;;6.73;;
42118;SDS011;27783;42.782;23.274;2022-09-01T12:40:41;7.38;;;6.68;;
42118;SDS011;27783;42.782;23.274;2022-09-01T12:43:06;7.88;;;7.25;;
42118;SDS011;27783;42.782;23.274;2022-09-01T12:45:38;10.13;;;7.03;;
42118;SDS011;27783;42.782;23.274;2022-09-01T12:48:04;11.40;;;7.57;;
42118;SDS011;27783;42.782;23.274;2022-09-01T12:50:34;13.00;;;7.55;;
42118;SDS011;27783;42.782;23.274;2022-09-01T12:53:01;7.70;;;7.00;;
42118;SDS011;27783;42.782;23.274;2022-09-01T12:55:36;9.25;;;6.78;;
42118;SDS011;27783;42.782;23.274;2022-09-01T12:58:02;7.22;;;6.00;;
42118;SDS011;27783;42.782;23.274;2022-09-01T13:00:53;8.55;;;6.03;;
42118;SDS011;27783;42.782;23.274;2022-09-01T13:03:27;6.93;;;6.22;;
42118;SDS011;27783;42.782;23.274;2022-09-01T13:05:53;7.68;;;6.97;;
42118;SDS011;27783;42.782;23.274;2022-09-01T13:08:23;7.15;;;6.45;;
42118;SDS011;27783;42.782;23.274;2022-09-01T13:13:30;7.38;;;6.63;;
42118;SDS011;27783;42.782;23.274;2022-09-01T13:15:57;8.10;;;6.82;;
42118;SDS011;27783;42.782;23.274;2022-09-01T13:18:32;7.03;;;6.47;;
42118;SDS011;27783;42.782;23.274;2022-09-01T13:20:58;6.93;;;6.50;;
42118;SDS011;27783;42.782;23.274;2022-09-01T13:23:24;7.75;;;7.15;;
42118;SDS011;27783;42.782;23.274;2022-09-01T13:25:50;8.45;;;7.78;;
42118;SDS011;27783;42.782;23.274;2022-09-01T13:28:17;7.88;;;7.28;;
42118;SDS011;27783;42.782;23.274;2022-09-01T13:30:43;8.88;;;8.18;;
42118;SDS011;27783;42.782;23.274;2022-09-01T13:33:12;8.70;;;8.00;;
42118;SDS011;27783;42.782;23.274;2022-09-01T13:35:37;8.88;;;7.85;;
42118;SDS011;27783;42.782;23.274;2022-09-01T13:38:03;9.73;;;9.02;;
42118;SDS011;27783;42.782;23.274;2022-09-01T13:40:28;8.50;;;7.82;;
42118;SDS011;27783;42.782;23.274;2022-09-01T13:42:54;9.30;;;8.50;;
42118;SDS011;27783;42.782;23.274;2022-09-01T13:45:20;8.75;;;8.00;;
42118;SDS011;27783;42.782;23.274;2022-09-01T13:47:49;8.82;;;8.13;;
42118;SDS011;27783;42.782;23.274;2022-09-01T13:50:17;8.85;;;8.15;;
42118;SDS011;27783;42.782;23.274;2022-09-01T13:55:13;19.37;;;10.50;;
42118;SDS011;27783;42.782;23.274;2022-09-01T13:57:41;10.18;;;9.05;;
42118;SDS011;27783;42.782;23.274;2022-09-01T14:00:08;10.07;;;9.25;;
42118;SDS011;27783;42.782;23.274;2022-09-01T14:02:43;11.20;;;10.02;;
42118;SDS011;27783;42.782;23.274;2022-09-01T14:05:18;9.55;;;8.73;;
42118;SDS011;27783;42.782;23.274;2022-09-01T14:07:45;13.85;;;8.80;;
42118;SDS011;27783;42.782;23.274;2022-09-01T14:10:13;9.77;;;8.40;;
42118;SDS011;27783;42.782;23.274;2022-09-01T14:12:39;9.57;;;8.57;;
42118;SDS011;27783;42.782;23.274;2022-09-01T14:15:06;10.15;;;9.20;;
42118;SDS011;27783;42.782;23.274;2022-09-01T14:17:33;9.55;;;8.75;;
42118;SDS011;27783;42.782;23.274;2022-09-01T14:19:59;9.48;;;8.13;;
42118;SDS011;27783;42.782;23.274;2022-09-01T14:22:25;11.40;;;8.75;;
42118;SDS011;27783;42.782;23.274;2022-09-01T14:24:51;29.80;;;9.07;;
42118;SDS011;27783;42.782;23.274;2022-09-01T14:27:16;7.78;;;6.55;;
42118;SDS011;27783;42.782;23.274;2022-09-01T14:29:41;15.70;;;7.18;;
42118;SDS011;27783;42.782;23.274;2022-09-01T14:32:07;9.25;;;6.60;;
42118;SDS011;27783;42.782;23.274;2022-09-01T14:34:33;8.43;;;7.22;;
42118;SDS011;27783;42.782;23.274;2022-09-01T14:36:59;12.85;;;7.47;;
42118;SDS011;27783;42.782;23.274;2022-09-01T14:39:24;25.48;;;8.35;;
42118;SDS011;27783;42.782;23.274;2022-09-01T14:41:51;18.13;;;8.15;;
42118;SDS011;27783;42.782;23.274;2022-09-01T14:44:17;14.60;;;7.50;;
42118;SDS011;27783;42.782;23.274;2022-09-01T14:46:42;10.80;;;7.00;;
42118;SDS011;27783;42.782;23.274;2022-09-01T14:49:09;11.52;;;8.05;;
42118;SDS011;27783;42.782;23.274;2022-09-01T14:51:35;8.27;;;7.47;;
42118;SDS011;27783;42.782;23.274;2022-09-01T14:54:02;14.85;;;7.53;;
42118;SDS011;27783;42.782;23.274;2022-09-01T14:56:28;16.63;;;7.65;;
42118;SDS011;27783;42.782;23.274;2022-09-01T14:58:54;45.00;;;16.08;;
42118;SDS011;27783;42.782;23.274;2022-09-01T15:01:24;33.78;;;11.23;;
42118;SDS011;27783;42.782;23.274;2022-09-01T15:03:51;31.63;;;12.63;;
42118;SDS011;27783;42.782;23.274;2022-09-01T15:06:18;33.00;;;11.27;;
42118;SDS011;27783;42.782;23.274;2022-09-01T15:11:12;29.10;;;11.43;;
42118;SDS011;27783;42.782;23.274;2022-09-01T15:13:40;22.20;;;11.73;;
42118;SDS011;27783;42.782;23.274;2022-09-01T15:16:11;33.92;;;13.07;;
42118;SDS011;27783;42.782;23.274;2022-09-01T15:18:43;19.47;;;10.27;;
42118;SDS011;27783;42.782;23.274;2022-09-01T15:21:16;29.17;;;12.52;;
42118;SDS011;27783;42.782;23.274;2022-09-01T15:23:43;24.27;;;12.75;;
42118;SDS011;27783;42.782;23.274;2022-09-01T15:26:09;21.35;;;10.93;;
42118;SDS011;27783;42.782;23.274;2022-09-01T15:28:34;18.40;;;10.35;;
42118;SDS011;27783;42.782;23.274;2022-09-01T15:30:59;13.40;;;9.48;;
42118;SDS011;27783;42.782;23.274;2022-09-01T15:33:25;12.65;;;9.13;;
42118;SDS011;27783;42.782;23.274;2022-09-01T15:35:50;16.67;;;9.68;;
42118;SDS011;27783;42.782;23.274;2022-09-01T15:38:16;26.05;;;10.45;;
42118;SDS011;27783;42.782;23.274;2022-09-01T15:40:42;20.08;;;9.68;;
42118;SDS011;27783;42.782;23.274;2022-09-01T15:43:08;16.73;;;9.98;;
42118;SDS011;27783;42.782;23.274;2022-09-01T15:45:35;15.35;;;9.00;;
42118;SDS011;27783;42.782;23.274;2022-09-01T15:48:01;15.88;;;9.00;;
42118;SDS011;27783;42.782;23.274;2022-09-01T15:50:27;11.95;;;8.55;;